createdAt,value
2022-09-23T00:02:25.409Z,7.26
2022-09-23T00:05:22.863Z,7.20
2022-09-23T00:08:20.376Z,7.20
2022-09-23T00:11:17.852Z,7.20
2022-09-23T00:14:15.334Z,7.12
2022-09-23T00:17:12.836Z,7.10
2022-09-23T00:20:10.342Z,7.10
2022-09-23T00:23:07.818Z,7.00
2022-09-23T00:26:05.260Z,7.00
2022-09-23T00:29:02.690Z,7.00
2022-09-23T00:32:00.150Z,7.00
2022-09-23T00:34:57.572Z,7.00
2022-09-23T00:37:55.004Z,7.00
2022-09-23T00:40:52.481Z,7.00
2022-09-23T00:43:49.914Z,7.00
2022-09-23T00:46:47.350Z,7.00
2022-09-23T00:49:44.754Z,7.00
2022-09-23T00:52:42.371Z,7.10
2022-09-23T00:55:39.929Z,7.10
2022-09-23T00:58:37.357Z,7.10
2022-09-23T01:01:34.846Z,7.20
2022-09-23T01:04:32.307Z,7.20
2022-09-23T01:07:30.207Z,7.20
2022-09-23T01:10:27.641Z,7.30
2022-09-23T01:13:25.343Z,7.30
2022-09-23T01:16:22.813Z,7.30
2022-09-23T01:19:20.290Z,7.30
2022-09-23T01:22:17.785Z,7.24
2022-09-23T01:25:15.215Z,7.24
2022-09-23T01:28:12.754Z,7.20
2022-09-23T01:31:10.226Z,7.20
2022-09-23T01:34:07.702Z,7.20
2022-09-23T01:37:05.155Z,7.20
2022-09-23T01:40:03.046Z,7.20
2022-09-23T01:43:00.609Z,7.20
2022-09-23T01:45:58.026Z,7.20
2022-09-23T01:48:55.496Z,7.20
2022-09-23T01:51:52.923Z,7.20
2022-09-23T01:54:50.786Z,7.20
2022-09-23T01:57:49.048Z,7.20
2022-09-23T02:00:46.505Z,7.20
2022-09-23T02:03:43.941Z,7.10
2022-09-23T02:06:41.452Z,7.10
2022-09-23T02:09:38.881Z,7.10
2022-09-23T02:12:38.272Z,7.10
2022-09-23T02:15:35.740Z,7.10
2022-09-23T02:18:33.198Z,7.10
2022-09-23T02:21:30.839Z,7.08
2022-09-23T02:24:28.285Z,7.08
2022-09-23T02:27:26.004Z,7.06
2022-09-23T02:30:24.295Z,7.00
2022-09-23T02:33:21.792Z,7.06
2022-09-23T02:36:19.235Z,7.08
2022-09-23T02:39:16.719Z,7.02
2022-09-23T02:42:14.138Z,7.04
2022-09-23T02:45:11.629Z,7.04
2022-09-23T02:48:09.054Z,7.00
2022-09-23T02:51:06.467Z,7.00
2022-09-23T02:54:04.571Z,7.08
2022-09-23T02:57:02.460Z,7.10
2022-09-23T03:00:00.004Z,7.10
2022-09-23T03:02:57.763Z,7.10
2022-09-23T03:05:55.598Z,7.10
2022-09-23T03:08:53.611Z,7.10
2022-09-23T03:11:51.052Z,7.10
2022-09-23T03:14:49.659Z,7.10
2022-09-23T03:17:48.089Z,7.10
2022-09-23T03:20:45.562Z,7.10
2022-09-23T03:23:42.990Z,7.10
2022-09-23T03:26:40.434Z,7.10
2022-09-23T03:29:37.848Z,7.10
2022-09-23T03:32:35.286Z,7.10
2022-09-23T03:35:32.765Z,7.10
2022-09-23T03:38:30.429Z,7.00
2022-09-23T03:41:29.115Z,7.00
2022-09-23T03:44:29.352Z,6.90
2022-09-23T03:47:26.781Z,6.84
2022-09-23T03:50:24.210Z,6.80
2022-09-23T03:53:22.274Z,6.80
2022-09-23T03:56:19.870Z,6.72
2022-09-23T03:59:17.289Z,6.70
2022-09-23T04:02:16.775Z,6.70
2022-09-23T04:05:14.241Z,6.60
2022-09-23T04:08:11.771Z,6.52
2022-09-23T04:11:09.209Z,6.50
2022-09-23T04:14:07.015Z,6.50
2022-09-23T04:17:04.463Z,6.40
2022-09-23T04:20:01.923Z,6.30
2022-09-23T04:22:59.368Z,6.30
2022-09-23T04:25:56.800Z,6.20
2022-09-23T04:28:54.243Z,6.10
2022-09-23T04:31:51.782Z,6.10
2022-09-23T04:34:49.410Z,6.00
2022-09-23T04:37:46.971Z,5.98
2022-09-23T04:40:44.463Z,5.90
2022-09-23T04:43:42.340Z,5.90
2022-09-23T04:46:39.828Z,5.80
2022-09-23T04:49:37.286Z,5.80
2022-09-23T04:52:34.731Z,5.76
2022-09-23T04:55:32.126Z,5.70
2022-09-23T04:58:29.554Z,5.70
2022-09-23T05:01:27.299Z,5.70
2022-09-23T05:04:24.826Z,5.70
2022-09-23T05:07:22.235Z,5.70
2022-09-23T05:10:19.758Z,5.70
2022-09-23T05:13:17.200Z,5.70
2022-09-23T05:16:14.684Z,5.70
2022-09-23T05:19:13.749Z,5.70
2022-09-23T05:22:11.268Z,5.70
2022-09-23T05:25:08.796Z,5.70
2022-09-23T05:28:07.078Z,5.70
2022-09-23T05:31:05.517Z,5.72
2022-09-23T05:34:02.973Z,5.80
2022-09-23T05:37:00.418Z,5.80
2022-09-23T05:39:58.462Z,5.90
2022-09-23T05:42:56.646Z,6.00
2022-09-23T05:45:54.103Z,6.10
2022-09-23T05:48:51.521Z,6.30
2022-09-23T05:51:48.919Z,6.56
2022-09-23T05:54:46.360Z,6.82
2022-09-23T05:57:43.784Z,7.16
2022-09-23T06:00:41.634Z,7.50
2022-09-23T06:03:39.180Z,7.90
2022-09-23T06:06:36.625Z,8.30
2022-09-23T06:09:36.552Z,8.78
2022-09-23T06:12:35.116Z,9.26
2022-09-23T06:15:32.790Z,9.78
2022-09-23T06:18:30.212Z,10.34
2022-09-23T06:21:27.667Z,10.94
2022-09-23T06:24:30.808Z,11.50
2022-09-23T06:27:28.897Z,12.10
2022-09-23T06:30:26.791Z,12.70
2022-09-23T06:33:34.540Z,13.20
2022-09-23T06:36:42.521Z,14.54
2022-09-23T06:39:41.255Z,16.90
2022-09-23T06:42:38.700Z,18.88
2022-09-23T06:45:36.155Z,19.98
2022-09-23T06:48:35.316Z,20.12
2022-09-23T06:51:32.819Z,18.74
2022-09-23T06:54:30.890Z,17.48
2022-09-23T06:57:28.341Z,16.24
2022-09-23T07:00:26.259Z,15.30
2022-09-23T07:03:23.686Z,14.48
2022-09-23T07:06:22.197Z,13.84
2022-09-23T07:09:19.757Z,13.32
2022-09-23T07:12:17.321Z,12.94
2022-09-23T07:15:15.253Z,12.60
2022-09-23T07:18:12.685Z,12.30
2022-09-23T07:21:10.152Z,12.00
2022-09-23T07:24:07.714Z,11.90
2022-09-23T07:27:05.493Z,11.80
2022-09-23T07:30:02.997Z,11.70
2022-09-23T07:33:00.523Z,11.64
2022-09-23T07:35:58.127Z,11.96
2022-09-23T07:39:00.745Z,12.40
2022-09-23T07:41:58.234Z,13.16
2022-09-23T07:44:57.304Z,14.16
2022-09-23T07:47:55.389Z,16.60
2022-09-23T07:50:52.832Z,19.90
2022-09-23T07:53:50.264Z,23.00
2022-09-23T07:56:47.702Z,25.92
2022-09-23T07:59:45.123Z,27.70
2022-09-23T08:02:42.653Z,29.50
2022-09-23T08:05:40.134Z,30.86
2022-09-23T08:08:39.533Z,32.12
2022-09-23T08:11:42.015Z,33.42
2022-09-23T08:14:39.754Z,34.60
2022-09-23T08:17:37.177Z,35.00
2022-09-23T08:20:48.021Z,35.90
2022-09-23T08:23:47.014Z,36.90
2022-09-23T08:26:44.551Z,37.56
2022-09-23T08:29:41.995Z,38.18
2022-09-23T08:32:39.435Z,38.00
2022-09-23T08:35:36.844Z,38.12
2022-09-23T08:38:34.275Z,38.40
2022-09-23T08:41:31.703Z,38.62
2022-09-23T08:44:29.138Z,39.10
2022-09-23T08:47:27.473Z,39.56
2022-09-23T08:50:25.022Z,39.54
2022-09-23T08:53:22.483Z,39.70
2022-09-23T08:56:19.925Z,39.20
2022-09-23T08:59:17.358Z,39.24
2022-09-23T09:02:14.859Z,39.84
2022-09-23T09:05:12.357Z,40.20
2022-09-23T09:08:09.774Z,40.32
2022-09-23T09:11:07.208Z,40.40
2022-09-23T09:14:04.666Z,40.50
2022-09-23T09:17:02.572Z,40.20
2022-09-23T09:20:01.401Z,40.64
2022-09-23T09:23:00.676Z,41.10
2022-09-23T09:25:58.165Z,40.74
2022-09-23T09:29:02.467Z,39.70
2022-09-23T09:32:15.207Z,39.40
2022-09-23T09:35:12.860Z,39.28
2022-09-23T09:38:10.290Z,39.70
2022-09-23T09:41:07.743Z,39.20
2022-09-23T09:44:05.203Z,39.50
2022-09-23T09:47:02.692Z,39.58
2022-09-23T09:50:00.871Z,39.68
2022-09-23T09:52:58.281Z,40.24
2022-09-23T09:56:00.863Z,40.24
2022-09-23T09:59:01.372Z,40.30
2022-09-23T10:01:58.821Z,40.16
2022-09-23T10:04:56.251Z,40.30
2022-09-23T10:07:53.703Z,40.58
2022-09-23T10:10:51.932Z,40.40
2022-09-23T10:13:49.375Z,40.60
2022-09-23T10:16:47.384Z,40.80
2022-09-23T10:19:44.987Z,40.70
2022-09-23T10:22:43.342Z,40.84
2022-09-23T10:25:40.823Z,41.00
2022-09-23T10:28:38.258Z,40.94
2022-09-23T10:31:35.685Z,40.70
2022-09-23T10:34:33.187Z,40.64
2022-09-23T10:37:30.734Z,40.28
2022-09-23T10:40:46.053Z,40.00
2022-09-23T10:44:01.590Z,39.60
2022-09-23T10:46:59.107Z,39.50
2022-09-23T10:49:56.515Z,39.26
2022-09-23T10:52:53.973Z,39.20
2022-09-23T10:55:51.408Z,39.60
2022-09-23T10:58:50.637Z,39.72
2022-09-23T11:01:49.101Z,38.70
2022-09-23T11:04:46.580Z,38.80
2022-09-23T11:07:44.532Z,38.90
2022-09-23T11:10:45.949Z,39.20
2022-09-23T11:13:44.124Z,39.50
2022-09-23T11:16:41.602Z,39.70
2022-09-23T11:19:43.432Z,39.80
2022-09-23T11:22:44.019Z,37.74
2022-09-23T11:25:41.456Z,36.66
2022-09-23T11:28:38.962Z,36.98
2022-09-23T11:31:36.462Z,37.60
2022-09-23T11:34:34.254Z,38.00
2022-09-23T11:37:31.670Z,38.20
2022-09-23T11:40:30.368Z,38.40
2022-09-23T11:43:29.058Z,38.30
2022-09-23T11:46:28.549Z,38.60
2022-09-23T11:49:26.092Z,38.80
2022-09-23T11:52:23.543Z,39.28
2022-09-23T11:55:23.670Z,39.60
2022-09-23T11:58:25.510Z,39.50
2022-09-23T12:01:34.878Z,39.80
2022-09-23T12:04:34.155Z,40.04
2022-09-23T12:07:31.986Z,40.04
2022-09-23T12:10:29.562Z,39.80
2022-09-23T12:13:27.439Z,39.80
2022-09-23T12:16:24.964Z,39.60
2022-09-23T12:19:23.559Z,39.80
2022-09-23T12:22:21.754Z,39.12
2022-09-23T12:25:19.188Z,37.86
2022-09-23T12:28:16.978Z,35.58
2022-09-23T12:31:14.471Z,33.68
2022-09-23T12:34:11.924Z,32.12
2022-09-23T12:37:09.805Z,30.96
2022-09-23T12:40:07.839Z,30.14
2022-09-23T12:43:05.261Z,29.48
2022-09-23T12:46:03.028Z,28.90
2022-09-23T12:49:00.698Z,28.30
2022-09-23T12:51:58.135Z,27.92
2022-09-23T12:54:56.162Z,27.58
2022-09-23T12:57:53.598Z,27.30
2022-09-23T13:00:51.652Z,27.18
2022-09-23T13:04:06.864Z,27.00
2022-09-23T13:07:06.562Z,26.84
2022-09-23T13:10:04.046Z,26.70
2022-09-23T13:13:02.481Z,26.50
2022-09-23T13:15:59.938Z,26.50
2022-09-23T13:18:57.416Z,26.50
2022-09-23T13:21:55.356Z,26.40
2022-09-23T13:24:52.938Z,26.10
2022-09-23T13:27:50.359Z,26.00
2022-09-23T13:30:47.822Z,25.92
2022-09-23T13:33:45.349Z,26.00
2022-09-23T13:36:42.802Z,25.90
2022-09-23T13:39:40.246Z,26.00
2022-09-23T13:42:37.924Z,25.80
2022-09-23T13:45:35.401Z,25.70
2022-09-23T13:48:33.157Z,25.60
2022-09-23T13:51:31.207Z,25.38
2022-09-23T13:54:28.993Z,25.10
2022-09-23T13:57:26.536Z,25.00
2022-09-23T14:00:25.526Z,24.90
2022-09-23T14:03:22.966Z,25.00
2022-09-23T14:06:20.404Z,25.10
2022-09-23T14:09:17.876Z,25.00
2022-09-23T14:12:15.337Z,24.80
2022-09-23T14:15:13.205Z,24.70
2022-09-23T14:18:11.159Z,24.70
2022-09-23T14:21:09.454Z,24.70
2022-09-23T14:24:06.991Z,24.40
2022-09-23T14:27:04.641Z,24.20
2022-09-23T14:30:02.314Z,24.30
2022-09-23T14:33:00.062Z,24.10
2022-09-23T14:35:57.539Z,24.10
2022-09-23T14:38:55.448Z,24.20
2022-09-23T14:41:53.455Z,24.10
2022-09-23T14:44:51.385Z,23.90
2022-09-23T14:47:48.988Z,23.90
2022-09-23T14:50:48.656Z,23.90
2022-09-23T14:53:46.529Z,23.60
2022-09-23T14:56:44.043Z,23.30
2022-09-23T14:59:41.508Z,22.96
2022-09-23T15:02:39.083Z,22.70
2022-09-23T15:05:36.581Z,22.48
2022-09-23T15:08:34.032Z,22.20
2022-09-23T15:11:31.471Z,21.90
2022-09-23T15:14:37.745Z,21.70
2022-09-23T15:17:36.501Z,21.30
2022-09-23T15:20:34.011Z,20.90
2022-09-23T15:23:31.466Z,20.60
2022-09-23T15:26:28.892Z,20.40
2022-09-23T15:29:27.321Z,20.20
2022-09-23T15:32:24.961Z,20.00
2022-09-23T15:35:22.403Z,19.70
2022-09-23T15:38:19.819Z,19.50
2022-09-23T15:41:17.458Z,19.30
2022-09-23T15:44:14.929Z,19.00
2022-09-23T15:47:12.752Z,18.90
2022-09-23T15:50:11.243Z,18.72
2022-09-23T15:53:09.008Z,18.50
2022-09-23T15:56:06.542Z,18.30
2022-09-23T15:59:04.251Z,18.20
2022-09-23T16:02:01.744Z,18.00
2022-09-23T16:05:02.931Z,17.80
2022-09-23T16:08:02.796Z,17.70
2022-09-23T16:11:04.282Z,17.50
2022-09-23T16:14:01.734Z,17.40
2022-09-23T16:16:59.179Z,17.20
2022-09-23T16:19:56.723Z,17.10
2022-09-23T16:22:54.174Z,17.00
2022-09-23T16:25:52.739Z,16.86
2022-09-23T16:28:50.242Z,16.70
2022-09-23T16:31:47.800Z,16.60
2022-09-23T16:34:45.379Z,16.50
2022-09-23T16:37:47.062Z,16.38
2022-09-23T16:40:47.146Z,16.20
2022-09-23T16:43:44.971Z,16.02
2022-09-23T16:46:43.377Z,15.90
2022-09-23T16:49:40.812Z,15.70
2022-09-23T16:52:38.262Z,15.58
2022-09-23T16:55:35.806Z,15.40
2022-09-23T16:58:33.272Z,15.28
2022-09-23T17:01:48.373Z,15.10
2022-09-23T17:04:46.723Z,14.90
2022-09-23T17:07:44.447Z,14.72
2022-09-23T17:10:44.532Z,14.60
2022-09-23T17:13:42.433Z,14.40
2022-09-23T17:16:39.924Z,14.30
2022-09-23T17:19:37.501Z,14.10
2022-09-23T17:22:35.421Z,13.90
2022-09-23T17:25:34.159Z,13.80
2022-09-23T17:28:31.628Z,13.70
2022-09-23T17:31:29.314Z,13.50
2022-09-23T17:34:28.980Z,13.40
2022-09-23T17:37:26.426Z,13.30
2022-09-23T17:40:26.353Z,13.20
2022-09-23T17:43:24.772Z,13.00
2022-09-23T17:46:22.367Z,12.90
2022-09-23T17:49:20.508Z,12.70
2022-09-23T17:52:18.022Z,12.60
2022-09-23T17:55:16.863Z,12.50
2022-09-23T17:58:14.314Z,12.40
2022-09-23T18:01:11.895Z,12.30
2022-09-23T18:04:09.509Z,12.20
2022-09-23T18:07:07.888Z,12.10
2022-09-23T18:10:05.367Z,12.00
2022-09-23T18:13:02.821Z,11.90
2022-09-23T18:16:00.274Z,11.80
2022-09-23T18:18:57.788Z,11.70
2022-09-23T18:21:56.282Z,11.60
2022-09-23T18:24:53.714Z,11.50
2022-09-23T18:27:51.174Z,11.42
2022-09-23T18:30:48.639Z,11.40
2022-09-23T18:33:46.117Z,11.30
2022-09-23T18:36:43.615Z,11.20
2022-09-23T18:39:41.049Z,11.10
2022-09-23T18:42:40.512Z,11.10
2022-09-23T18:45:38.000Z,11.00
2022-09-23T18:48:53.023Z,10.92
2022-09-23T18:51:50.557Z,10.90
2022-09-23T18:54:50.780Z,10.80
2022-09-23T18:57:51.856Z,10.80
2022-09-23T19:00:50.441Z,10.70
2022-09-23T19:03:48.500Z,10.60
2022-09-23T19:06:45.950Z,10.60
2022-09-23T19:09:43.457Z,10.50
2022-09-23T19:12:41.042Z,10.40
2022-09-23T19:15:38.561Z,10.30
2022-09-23T19:18:37.168Z,10.30
2022-09-23T19:21:34.742Z,10.20
2022-09-23T19:24:32.562Z,10.16
2022-09-23T19:27:30.065Z,10.10
2022-09-23T19:30:27.539Z,10.00
2022-09-23T19:33:24.993Z,10.00
2022-09-23T19:36:22.497Z,9.90
2022-09-23T19:39:19.969Z,9.90
2022-09-23T19:42:17.509Z,9.80
2022-09-23T19:45:14.970Z,9.74
2022-09-23T19:48:12.412Z,9.70
2022-09-23T19:51:09.824Z,9.60
2022-09-23T19:54:07.423Z,9.52
2022-09-23T19:57:05.025Z,9.50
2022-09-23T20:00:02.476Z,9.50
2022-09-23T20:03:00.114Z,9.40
2022-09-23T20:05:57.877Z,9.40
2022-09-23T20:08:57.647Z,9.40
2022-09-23T20:11:55.080Z,9.32
2022-09-23T20:14:52.593Z,9.30
2022-09-23T20:17:51.533Z,9.24
2022-09-23T20:20:48.964Z,9.20
2022-09-23T20:23:46.386Z,9.10
2022-09-23T20:27:09.740Z,9.10
2022-09-23T20:30:07.238Z,9.00
2022-09-23T20:33:04.665Z,9.00
2022-09-23T20:36:02.182Z,8.90
2022-09-23T20:39:00.499Z,8.90
2022-09-23T20:41:58.608Z,8.90
2022-09-23T20:44:56.333Z,8.88
2022-09-23T20:47:53.794Z,8.80
2022-09-23T20:50:51.373Z,8.70
2022-09-23T20:53:49.231Z,8.70
2022-09-23T20:56:46.746Z,8.62
2022-09-23T20:59:44.618Z,8.60
2022-09-23T21:02:42.520Z,8.60
2022-09-23T21:05:42.323Z,8.56
2022-09-23T21:08:40.244Z,8.50
2022-09-23T21:11:38.356Z,8.50
2022-09-23T21:14:35.789Z,8.46
2022-09-23T21:17:33.748Z,8.40
2022-09-23T21:20:31.796Z,8.40
2022-09-23T21:23:29.377Z,8.30
2022-09-23T21:26:26.797Z,8.30
2022-09-23T21:29:24.254Z,8.20
2022-09-23T21:32:21.887Z,8.20
2022-09-23T21:35:19.518Z,8.10
2022-09-23T21:38:16.938Z,8.10
2022-09-23T21:41:14.371Z,8.00
2022-09-23T21:44:12.158Z,8.00
2022-09-23T21:47:09.669Z,7.94
2022-09-23T21:50:07.149Z,7.90
2022-09-23T21:53:04.843Z,7.90
2022-09-23T21:56:03.529Z,7.80
2022-09-23T21:59:01.038Z,7.80
2022-09-23T22:01:59.376Z,7.76
2022-09-23T22:04:56.811Z,7.70
2022-09-23T22:07:54.365Z,7.70
2022-09-23T22:10:51.801Z,7.60
2022-09-23T22:13:49.240Z,7.60
2022-09-23T22:16:46.680Z,7.60
2022-09-23T22:19:47.593Z,7.52
2022-09-23T22:22:45.021Z,7.50
2022-09-23T22:25:42.473Z,7.50
2022-09-23T22:28:57.507Z,7.50
2022-09-23T22:32:12.482Z,7.50
2022-09-23T22:35:09.926Z,7.50
2022-09-23T22:38:07.375Z,7.40
2022-09-23T22:41:04.860Z,7.40
2022-09-23T22:44:03.834Z,7.40
2022-09-23T22:47:01.938Z,7.40
2022-09-23T22:49:59.427Z,7.40
2022-09-23T22:52:56.869Z,7.40
2022-09-23T22:55:54.300Z,7.30
2022-09-23T22:58:51.738Z,7.30
2022-09-23T23:01:51.805Z,7.30
2022-09-23T23:04:49.370Z,7.30
2022-09-23T23:07:47.095Z,7.30
2022-09-23T23:10:44.531Z,7.30
2022-09-23T23:13:42.004Z,7.30
2022-09-23T23:16:39.540Z,7.20
2022-09-23T23:19:39.875Z,7.20
2022-09-23T23:22:37.392Z,7.20
2022-09-23T23:25:34.848Z,7.20
2022-09-23T23:28:32.327Z,7.10
2022-09-23T23:31:32.231Z,7.10
2022-09-23T23:34:29.822Z,7.10
2022-09-23T23:37:27.262Z,7.10
2022-09-23T23:40:24.682Z,7.00
2022-09-23T23:43:22.187Z,7.00
2022-09-23T23:46:19.648Z,7.00
2022-09-23T23:49:17.137Z,7.00
2022-09-23T23:52:14.584Z,6.90
2022-09-23T23:55:12.019Z,6.90
2022-09-23T23:58:09.455Z,6.90
